Terminal Aerodrome Forecast
Issued by NWS Binghamton, NY

Home | Current Version | Previous Version | Text Only | Print | Product List | Glossary On
Versions: 1 2 3 4 5 6 7 8 9 10 11 12 13 14 15 16 17 18 19 20 21 22
518
FTUS41 KBGM 221141
TAFSYR
TAF
KSYR 221141Z 2212/2312 30010KT P6SM -RA OVC012
      TEMPO 2212/2214 4SM -SNRA OVC007
     FM221600 30010G17KT P6SM -SHSN OVC020
     FM222200 30010G17KT P6SM OVC025
     FM230100 28006KT P6SM BKN025=

USA.gov is the U.S. government's official web portal to all federal, state and local government web resources and services.